createdAt,value
2022-12-11T00:00:52.876Z,-0.90
2022-12-11T00:03:19.678Z,-0.90
2022-12-11T00:05:46.499Z,-0.90
2022-12-11T00:08:13.856Z,-1.00
2022-12-11T00:10:47.045Z,-0.90
2022-12-11T00:13:13.743Z,-0.80
2022-12-11T00:15:53.668Z,-0.70
2022-12-11T00:18:20.339Z,-0.70
2022-12-11T00:20:47.008Z,-0.80
2022-12-11T00:23:13.637Z,-0.70
2022-12-11T00:25:47.501Z,-0.80
2022-12-11T00:28:18.815Z,-0.80
2022-12-11T00:30:46.043Z,-0.80
2022-12-11T00:33:13.824Z,-0.80
2022-12-11T00:35:42.187Z,-0.80
2022-12-11T00:38:09.390Z,-0.70
2022-12-11T00:40:36.993Z,-0.70
2022-12-11T00:43:04.088Z,-0.70
2022-12-11T00:45:30.877Z,-0.60
2022-12-11T00:47:57.530Z,-0.60
2022-12-11T00:50:24.137Z,-0.70
2022-12-11T00:52:50.786Z,-0.70
2022-12-11T00:55:17.464Z,-0.70
2022-12-11T00:57:44.103Z,-0.60
2022-12-11T01:00:12.084Z,-0.60
2022-12-11T01:02:38.712Z,-0.60
2022-12-11T01:05:05.808Z,-0.70
2022-12-11T01:07:55.232Z,-0.60
2022-12-11T01:10:24.766Z,-0.70
2022-12-11T01:12:57.966Z,-0.70
2022-12-11T01:15:28.487Z,-0.70
2022-12-11T01:17:55.632Z,-0.70
2022-12-11T01:20:24.469Z,-0.80
2022-12-11T01:22:56.120Z,-0.80
2022-12-11T01:25:23.282Z,-0.80
2022-12-11T01:27:56.138Z,-0.90
2022-12-11T01:30:24.641Z,-0.90
2022-12-11T01:32:51.378Z,-0.90
2022-12-11T01:35:18.919Z,-0.90
2022-12-11T01:37:45.767Z,-0.80
2022-12-11T01:40:15.984Z,-0.80
2022-12-11T01:42:42.679Z,-0.80
2022-12-11T01:45:27.027Z,-0.70
2022-12-11T01:48:03.757Z,-0.70
2022-12-11T01:50:33.920Z,-0.70
2022-12-11T01:53:02.008Z,-0.70
2022-12-11T01:55:28.725Z,-0.60
2022-12-11T01:57:55.491Z,-0.70
2022-12-11T02:00:22.207Z,-0.60
2022-12-11T02:02:48.883Z,-0.50
2022-12-11T02:05:15.667Z,-0.50
2022-12-11T02:07:55.255Z,-0.50
2022-12-11T02:10:26.806Z,-0.50
2022-12-11T02:13:07.367Z,-0.50
2022-12-11T02:15:40.481Z,-0.60
2022-12-11T02:18:25.762Z,-0.60
2022-12-11T02:21:15.454Z,-0.60
2022-12-11T02:24:07.232Z,-0.60
2022-12-11T02:26:47.201Z,-0.50
2022-12-11T02:29:22.416Z,-0.60
2022-12-11T02:32:09.413Z,-0.70
2022-12-11T02:34:42.712Z,-0.70
2022-12-11T02:37:21.502Z,-0.80
2022-12-11T02:39:50.641Z,-0.70
2022-12-11T02:42:19.193Z,-0.70
2022-12-11T02:44:48.581Z,-0.70
2022-12-11T02:47:17.404Z,-0.70
2022-12-11T02:49:48.217Z,-0.70
2022-12-11T02:52:19.293Z,-0.70
2022-12-11T02:54:47.825Z,-0.70
2022-12-11T02:57:25.651Z,-0.60
2022-12-11T02:59:52.306Z,-0.50
2022-12-11T03:02:19.031Z,-0.50
2022-12-11T03:04:47.501Z,-0.50
2022-12-11T03:07:17.841Z,-0.60
2022-12-11T03:09:47.217Z,-0.60
2022-12-11T03:12:19.285Z,-0.70
2022-12-11T03:14:46.499Z,-0.60
2022-12-11T03:17:50.737Z,-0.70
2022-12-11T03:20:33.014Z,-0.70
2022-12-11T03:23:21.100Z,-0.60
2022-12-11T03:25:53.798Z,-0.50
2022-12-11T03:28:31.694Z,-0.40
2022-12-11T03:31:07.643Z,-0.40
2022-12-11T03:33:41.255Z,-0.50
2022-12-11T03:36:12.533Z,-0.50
2022-12-11T03:38:58.413Z,-0.50
2022-12-11T03:41:27.878Z,-0.50
2022-12-11T03:43:58.212Z,-0.50
2022-12-11T03:46:31.925Z,-0.50
2022-12-11T03:49:05.425Z,-0.60
2022-12-11T03:51:34.306Z,-0.50
2022-12-11T03:54:01.367Z,-0.60
2022-12-11T03:56:30.441Z,-0.50
2022-12-11T03:58:57.328Z,-0.50
2022-12-11T04:01:24.201Z,-0.50
2022-12-11T04:03:50.906Z,-0.40
2022-12-11T04:06:17.570Z,-0.40
2022-12-11T04:08:44.281Z,-0.30
2022-12-11T04:11:29.870Z,-0.30
2022-12-11T04:14:15.226Z,-0.40
2022-12-11T04:16:41.898Z,-0.50
2022-12-11T04:19:35.729Z,-0.50
2022-12-11T04:22:21.032Z,-0.50
2022-12-11T04:24:49.252Z,-0.50
2022-12-11T04:27:39.677Z,-0.40
2022-12-11T04:30:09.786Z,-0.40
2022-12-11T04:32:36.465Z,-0.50
2022-12-11T04:35:03.878Z,-0.50
2022-12-11T04:37:30.588Z,-0.50
2022-12-11T04:39:57.215Z,-0.50
2022-12-11T04:42:23.842Z,-0.50
2022-12-11T04:44:50.856Z,-0.50
2022-12-11T04:47:17.595Z,-0.50
2022-12-11T04:49:44.387Z,-0.40
2022-12-11T04:52:10.979Z,-0.40
2022-12-11T04:54:38.611Z,-0.40
2022-12-11T04:57:05.272Z,-0.40
2022-12-11T04:59:33.034Z,-0.50
2022-12-11T05:01:59.801Z,-0.40
2022-12-11T05:04:30.290Z,-0.40
2022-12-11T05:06:56.995Z,-0.40
2022-12-11T05:09:23.638Z,-0.40
2022-12-11T05:12:02.849Z,-0.50
2022-12-11T05:14:31.949Z,-0.50
2022-12-11T05:16:59.587Z,-0.40
2022-12-11T05:19:27.336Z,-0.30
2022-12-11T05:21:54.019Z,-0.30
2022-12-11T05:24:20.622Z,-0.30
2022-12-11T05:26:47.209Z,-0.30
2022-12-11T05:29:21.928Z,-0.30
2022-12-11T05:31:48.551Z,-0.30
2022-12-11T05:34:15.876Z,-0.30
2022-12-11T05:36:42.517Z,-0.30
2022-12-11T05:39:11.340Z,-0.30
2022-12-11T05:41:38.026Z,-0.40
2022-12-11T05:44:04.775Z,-0.30
2022-12-11T05:46:31.516Z,-0.30
2022-12-11T05:49:01.068Z,-0.30
2022-12-11T05:51:28.772Z,-0.40
2022-12-11T05:53:56.816Z,-0.40
2022-12-11T05:56:39.836Z,-0.30
2022-12-11T05:59:07.799Z,-0.40
2022-12-11T06:01:42.721Z,-0.30
2022-12-11T06:04:11.036Z,-0.20
2022-12-11T06:06:37.956Z,-0.20
2022-12-11T06:09:05.254Z,-0.20
2022-12-11T06:11:33.036Z,-0.20
2022-12-11T06:14:02.255Z,-0.30
2022-12-11T06:16:28.951Z,-0.40
2022-12-11T06:18:58.259Z,-0.40
2022-12-11T06:21:27.322Z,-0.30
2022-12-11T06:23:55.665Z,-0.30
2022-12-11T06:26:22.751Z,-0.30
2022-12-11T06:28:49.987Z,-0.30
2022-12-11T06:31:17.303Z,-0.30
2022-12-11T06:33:44.594Z,-0.40
2022-12-11T06:36:20.622Z,-0.40
2022-12-11T06:38:47.827Z,-0.50
2022-12-11T06:41:14.807Z,-0.40
2022-12-11T06:43:42.854Z,-0.40
2022-12-11T06:46:12.531Z,-0.40
2022-12-11T06:48:42.038Z,-0.40
2022-12-11T06:51:12.372Z,-0.40
2022-12-11T06:53:39.719Z,-0.30
2022-12-11T06:56:12.143Z,-0.30
2022-12-11T06:58:39.353Z,-0.20
2022-12-11T07:01:18.390Z,-0.20
2022-12-11T07:03:45.283Z,-0.20
2022-12-11T07:06:12.045Z,-0.30
2022-12-11T07:08:38.732Z,-0.20
2022-12-11T07:11:07.378Z,-0.20
2022-12-11T07:13:34.186Z,-0.30
2022-12-11T07:16:01.964Z,-0.30
2022-12-11T07:18:28.863Z,-0.30
2022-12-11T07:20:59.424Z,-0.30
2022-12-11T07:23:29.970Z,-0.20
2022-12-11T07:25:56.838Z,-0.20
2022-12-11T07:28:23.936Z,-0.20
2022-12-11T07:30:50.567Z,-0.30
2022-12-11T07:33:17.190Z,-0.30
2022-12-11T07:35:45.040Z,-0.30
2022-12-11T07:38:11.768Z,-0.30
2022-12-11T07:40:38.411Z,-0.30
2022-12-11T07:43:05.070Z,-0.30
2022-12-11T07:45:31.850Z,-0.30
2022-12-11T07:47:59.076Z,-0.20
2022-12-11T07:50:25.679Z,-0.20
2022-12-11T07:52:52.629Z,-0.20
2022-12-11T07:55:19.343Z,-0.20
2022-12-11T07:57:46.145Z,-0.20
2022-12-11T08:00:13.205Z,-0.30
2022-12-11T08:02:39.875Z,-0.40
2022-12-11T08:05:07.233Z,-0.30
2022-12-11T08:07:38.022Z,-0.10
2022-12-11T08:10:05.238Z,0.00
2022-12-11T08:12:31.850Z,0.00
2022-12-11T08:15:05.222Z,-0.10
2022-12-11T08:17:36.656Z,-0.10
2022-12-11T08:20:06.732Z,0.00
2022-12-11T08:22:34.285Z,0.00
2022-12-11T08:25:00.912Z,0.00
2022-12-11T08:27:29.722Z,0.00
2022-12-11T08:29:57.468Z,0.00
2022-12-11T08:32:24.141Z,0.00
2022-12-11T08:34:51.656Z,0.10
2022-12-11T08:37:24.360Z,0.10
2022-12-11T08:39:50.983Z,0.20
2022-12-11T08:42:17.707Z,0.20
2022-12-11T08:44:44.505Z,0.20
2022-12-11T08:47:11.310Z,0.20
2022-12-11T08:49:38.009Z,0.20
2022-12-11T08:52:07.806Z,0.20
2022-12-11T08:54:34.612Z,0.10
2022-12-11T08:57:01.259Z,0.20
2022-12-11T08:59:27.977Z,0.10
2022-12-11T09:01:56.231Z,0.10
2022-12-11T09:04:23.630Z,0.10
2022-12-11T09:06:50.302Z,0.10
2022-12-11T09:09:16.941Z,0.10
2022-12-11T09:11:43.617Z,0.10
2022-12-11T09:14:10.537Z,0.00
2022-12-11T09:16:47.271Z,0.00
2022-12-11T09:19:15.502Z,0.10
2022-12-11T09:21:43.816Z,0.10
2022-12-11T09:24:12.333Z,0.10
2022-12-11T09:26:39.804Z,0.10
2022-12-11T09:29:10.908Z,0.00
2022-12-11T09:31:37.896Z,0.10
2022-12-11T09:34:07.384Z,0.10
2022-12-11T09:36:44.774Z,0.10
2022-12-11T09:39:15.359Z,0.10
2022-12-11T09:42:06.403Z,0.20
2022-12-11T09:44:52.244Z,0.10
2022-12-11T09:47:41.400Z,0.00
2022-12-11T09:50:19.375Z,0.20
2022-12-11T09:53:20.103Z,0.30
2022-12-11T09:55:54.752Z,0.40
2022-12-11T09:58:30.522Z,0.30
2022-12-11T10:01:37.755Z,0.30
2022-12-11T10:04:16.498Z,0.30
2022-12-11T10:07:16.950Z,0.20
2022-12-11T10:09:58.781Z,0.10
2022-12-11T10:13:00.712Z,0.10
2022-12-11T10:15:41.060Z,0.10
2022-12-11T10:18:17.641Z,0.20
2022-12-11T10:20:45.246Z,0.20
2022-12-11T10:23:53.373Z,0.40
2022-12-11T10:26:22.366Z,0.40
2022-12-11T10:28:49.197Z,0.50
2022-12-11T10:31:20.291Z,0.50
2022-12-11T10:33:52.993Z,0.50
2022-12-11T10:36:36.429Z,0.60
2022-12-11T10:39:10.602Z,0.60
2022-12-11T10:41:39.958Z,0.60
2022-12-11T10:44:25.206Z,0.60
2022-12-11T10:47:24.497Z,0.80
2022-12-11T10:49:59.801Z,0.80
2022-12-11T10:52:34.979Z,0.90
2022-12-11T10:55:49.857Z,0.90
2022-12-11T10:58:22.747Z,0.80
2022-12-11T11:01:09.514Z,0.70
2022-12-11T11:03:56.709Z,0.70
2022-12-11T11:06:24.282Z,0.80
2022-12-11T11:08:57.123Z,0.90
2022-12-11T11:11:33.818Z,0.90
2022-12-11T11:14:18.573Z,0.80
2022-12-11T11:16:56.484Z,0.90
2022-12-11T11:19:29.188Z,0.90
2022-12-11T11:22:01.182Z,1.10
2022-12-11T11:24:30.208Z,1.20
2022-12-11T11:27:13.300Z,1.30
2022-12-11T11:29:42.124Z,1.40
2022-12-11T11:32:22.349Z,1.30
2022-12-11T11:34:49.023Z,1.30
2022-12-11T11:37:24.837Z,1.30
2022-12-11T11:39:55.393Z,1.30
2022-12-11T11:42:43.915Z,1.10
2022-12-11T11:45:22.841Z,1.10
2022-12-11T11:48:12.721Z,1.20
2022-12-11T11:50:45.574Z,1.30
2022-12-11T11:53:37.250Z,1.30
2022-12-11T11:56:22.560Z,1.20
2022-12-11T11:59:05.097Z,1.30
2022-12-11T12:01:32.221Z,1.30
2022-12-11T12:03:59.870Z,1.30
2022-12-11T12:06:38.752Z,1.30
2022-12-11T12:09:24.094Z,1.20
2022-12-11T12:12:12.528Z,1.20
2022-12-11T12:15:08.389Z,1.10
2022-12-11T12:17:55.994Z,1.10
2022-12-11T12:20:25.985Z,1.10
2022-12-11T12:23:18.980Z,1.20
2022-12-11T12:25:51.765Z,1.10
2022-12-11T12:28:44.992Z,1.20
2022-12-11T12:31:48.914Z,1.20
2022-12-11T12:34:34.341Z,1.20
2022-12-11T12:37:22.821Z,1.10
2022-12-11T12:40:03.524Z,1.20
2022-12-11T12:43:02.189Z,1.20
2022-12-11T12:45:34.568Z,1.30
2022-12-11T12:48:02.155Z,1.30
2022-12-11T12:50:42.720Z,1.20
2022-12-11T12:53:17.885Z,1.10
2022-12-11T12:55:46.610Z,1.20
2022-12-11T12:58:35.900Z,1.20
2022-12-11T13:01:10.379Z,1.20
2022-12-11T13:04:02.012Z,1.10
2022-12-11T13:06:34.905Z,1.10
2022-12-11T13:09:22.390Z,1.10
2022-12-11T13:11:53.627Z,1.10
2022-12-11T13:14:22.970Z,1.10
2022-12-11T13:16:51.689Z,1.10
2022-12-11T13:19:25.381Z,1.20
2022-12-11T13:22:15.431Z,1.20
2022-12-11T13:25:01.576Z,1.30
2022-12-11T13:27:43.513Z,1.20
2022-12-11T13:30:16.035Z,1.40
2022-12-11T13:32:49.914Z,1.30
2022-12-11T13:35:18.065Z,1.20
2022-12-11T13:37:47.284Z,1.20
2022-12-11T13:40:22.765Z,1.10
2022-12-11T13:43:10.237Z,1.20
2022-12-11T13:45:43.011Z,1.30
2022-12-11T13:48:23.032Z,1.10
2022-12-11T13:50:52.230Z,1.20
2022-12-11T13:53:19.810Z,1.20
2022-12-11T13:55:47.499Z,1.20
2022-12-11T13:58:22.161Z,1.10
2022-12-11T14:00:59.937Z,1.10
2022-12-11T14:03:27.370Z,1.10
2022-12-11T14:05:54.413Z,1.00
2022-12-11T14:08:23.622Z,0.90
2022-12-11T14:10:54.300Z,1.00
2022-12-11T14:13:27.359Z,0.90
2022-12-11T14:15:56.859Z,0.90
2022-12-11T14:18:27.218Z,0.80
2022-12-11T14:20:59.489Z,0.90
2022-12-11T14:23:32.137Z,0.90
2022-12-11T14:26:01.710Z,0.70
2022-12-11T14:28:36.606Z,0.80
2022-12-11T14:31:06.465Z,0.80
2022-12-11T14:33:43.806Z,0.90
2022-12-11T14:36:11.099Z,0.90
2022-12-11T14:38:44.394Z,0.80
2022-12-11T14:41:21.398Z,0.80
2022-12-11T14:43:53.852Z,0.70
2022-12-11T14:46:26.056Z,0.70
2022-12-11T14:49:01.177Z,0.80
2022-12-11T14:51:32.803Z,0.80
2022-12-11T14:54:00.280Z,0.80
2022-12-11T14:56:29.183Z,0.80
2022-12-11T14:59:00.401Z,0.60
2022-12-11T15:01:29.997Z,0.60
2022-12-11T15:04:19.532Z,0.50
2022-12-11T15:06:48.777Z,0.50
2022-12-11T15:09:29.164Z,0.50
2022-12-11T15:12:12.415Z,0.40
2022-12-11T15:14:50.183Z,0.40
2022-12-11T15:17:17.571Z,0.30
2022-12-11T15:19:51.048Z,0.30
2022-12-11T15:22:19.589Z,0.20
2022-12-11T15:24:47.029Z,0.20
2022-12-11T15:27:33.878Z,0.10
2022-12-11T15:30:00.678Z,0.00
2022-12-11T15:32:27.390Z,0.00
2022-12-11T15:34:59.046Z,0.00
2022-12-11T15:37:27.934Z,-0.10
2022-12-11T15:39:58.633Z,-0.10
2022-12-11T15:42:35.781Z,-0.10
2022-12-11T15:45:05.286Z,-0.20
2022-12-11T15:47:32.095Z,-0.30
2022-12-11T15:50:23.932Z,-0.30
2022-12-11T15:52:52.776Z,-0.50
2022-12-11T15:55:20.802Z,-0.50
2022-12-11T15:57:49.509Z,-0.60
2022-12-11T16:00:18.701Z,-0.70
2022-12-11T16:02:46.334Z,-0.70
2022-12-11T16:05:13.255Z,-0.60
2022-12-11T16:07:40.388Z,-0.60
2022-12-11T16:10:08.219Z,-0.60
2022-12-11T16:12:34.808Z,-0.50
2022-12-11T16:15:01.426Z,-0.50
2022-12-11T16:17:28.239Z,-0.50
2022-12-11T16:19:54.837Z,-0.50
2022-12-11T16:22:21.474Z,-0.40
2022-12-11T16:24:48.330Z,-0.30
2022-12-11T16:27:19.946Z,-0.30
2022-12-11T16:29:50.109Z,-0.30
2022-12-11T16:32:16.869Z,-0.20
2022-12-11T16:34:43.690Z,-0.10
2022-12-11T16:37:11.075Z,-0.10
